Time;durP1;ratioP1;P1;durP2;ratioP2;P2;SDS_P1;SDS_P2;PMS_P1;PMS_P2;Temp;Humidity;BMP_temperature;BMP_pressure;BME280_temperature;BME280_humidity;BME280_pressure;Samples;Min_cycle;Max_cycle;Signal;HPM_P1;HPM_P2
2023/12/25 00:02:14;;;;;;;1.30;0.55;;;10.20;55.20;;;;;;4958940;29;20118;-78
2023/12/25 00:04:40;;;;;;;2.20;0.40;;;10.20;55.20;;;;;;4958609;29;20371;-77
2023/12/25 00:07:07;;;;;;;1.52;0.40;;;10.20;54.70;;;;;;4958666;29;20035;-78
2023/12/25 00:09:33;;;;;;;0.75;0.45;;;10.10;54.60;;;;;;4959331;29;20034;-78
2023/12/25 00:11:58;;;;;;;1.33;0.52;;;10.10;54.30;;;;;;4941349;29;20031;-78
2023/12/25 00:14:24;;;;;;;1.83;0.90;;;10.00;54.30;;;;;;4958767;28;20412;-81
2023/12/25 00:16:49;;;;;;;2.10;0.50;;;10.00;54.10;;;;;;4958362;28;20392;-79
2023/12/25 00:19:15;;;;;;;0.45;0.30;;;10.00;53.80;;;;;;4941068;29;20027;-78
2023/12/25 00:21:40;;;;;;;0.63;0.55;;;10.00;52.70;;;;;;4958909;29;20030;-78
2023/12/25 00:24:06;;;;;;;1.27;0.60;;;10.10;52.10;;;;;;4958213;29;20472;-80
2023/12/25 00:26:31;;;;;;;1.50;0.38;;;10.10;51.00;;;;;;4958230;29;20027;-78
2023/12/25 00:28:57;;;;;;;1.60;0.50;;;10.10;51.10;;;;;;4940876;29;20576;-78
2023/12/25 00:31:22;;;;;;;0.45;0.32;;;10.10;50.40;;;;;;4958104;29;20125;-78
2023/12/25 00:33:48;;;;;;;0.90;0.40;;;10.10;49.60;;;;;;4957872;29;20023;-78
2023/12/25 00:36:14;;;;;;;1.70;0.40;;;10.20;49.40;;;;;;4957958;29;20464;-78
2023/12/25 00:38:39;;;;;;;0.98;0.40;;;10.20;49.40;;;;;;4957902;29;20020;-78
2023/12/25 00:41:05;;;;;;;0.55;0.25;;;10.10;49.90;;;;;;4957892;29;20404;-79
2023/12/25 00:43:30;;;;;;;0.22;0.22;;;10.00;49.30;;;;;;4957751;29;20023;-79
2023/12/25 00:45:57;;;;;;;1.88;0.45;;;10.10;48.80;;;;;;4957840;29;20392;-78
2023/12/25 00:48:23;;;;;;;0.65;0.40;;;10.10;48.40;;;;;;4957548;29;20476;-78
2023/12/25 00:50:48;;;;;;;3.28;0.40;;;10.10;48.60;;;;;;4957644;29;20085;-77
2023/12/25 00:53:14;;;;;;;0.65;0.40;;;10.10;48.30;;;;;;4957674;29;20035;-77
2023/12/25 00:55:39;;;;;;;1.80;0.50;;;10.10;47.90;;;;;;4957611;28;20468;-77
2023/12/25 00:58:05;;;;;;;0.73;0.40;;;10.10;47.90;;;;;;4957473;29;20500;-76
2023/12/25 01:00:31;;;;;;;1.45;0.45;;;10.10;47.50;;;;;;4957605;28;20024;-76
2023/12/25 01:02:56;;;;;;;1.23;0.50;;;10.10;47.50;;;;;;4956764;28;20031;-78
2023/12/25 01:05:22;;;;;;;1.40;0.40;;;10.10;47.40;;;;;;4957428;28;20674;-77
2023/12/25 01:07:47;;;;;;;0.65;0.40;;;10.00;47.80;;;;;;4940087;29;20035;-77
2023/12/25 01:10:13;;;;;;;1.13;0.38;;;10.00;47.00;;;;;;4957434;29;20038;-76
2023/12/25 01:12:38;;;;;;;0.50;0.30;;;10.00;45.80;;;;;;4956933;29;20393;-76
2023/12/25 01:15:04;;;;;;;1.83;0.60;;;10.10;45.90;;;;;;4957264;29;20027;-76
2023/12/25 01:17:30;;;;;;;0.90;0.30;;;10.10;45.70;;;;;;4956912;29;20038;-75
2023/12/25 01:19:56;;;;;;;0.80;0.40;;;10.00;46.00;;;;;;4957207;28;20028;-76
2023/12/25 01:22:21;;;;;;;1.10;0.32;;;10.00;45.80;;;;;;4957037;29;20031;-76
2023/12/25 01:24:47;;;;;;;0.82;0.30;;;10.00;45.20;;;;;;4939846;29;20071;-77
2023/12/25 01:27:12;;;;;;;1.20;0.60;;;10.10;44.60;;;;;;4956916;29;20031;-75
2023/12/25 01:29:38;;;;;;;1.23;0.50;;;10.10;45.00;;;;;;4956959;28;20030;-75
2023/12/25 01:32:03;;;;;;;1.58;0.40;;;10.00;45.00;;;;;;4956562;29;20552;-74
2023/12/25 01:34:29;;;;;;;0.45;0.45;;;10.10;44.60;;;;;;4956616;28;20124;-74
2023/12/25 01:36:54;;;;;;;1.40;0.57;;;10.10;44.20;;;;;;4956842;29;20035;-75
2023/12/25 01:39:21;;;;;;;2.15;0.75;;;10.10;43.90;;;;;;4956853;29;20093;-74
2023/12/25 01:41:46;;;;;;;0.80;0.30;;;10.10;44.00;;;;;;4956588;28;20027;-74
2023/12/25 01:44:12;;;;;;;1.45;0.65;;;10.10;43.50;;;;;;4956748;29;20031;-75
2023/12/25 01:46:38;;;;;;;1.75;0.40;;;10.10;43.60;;;;;;4939371;29;20023;-75
2023/12/25 01:49:05;;;;;;;0.60;0.40;;;10.10;43.80;;;;;;4956527;28;20023;-75
2023/12/25 01:51:31;;;;;;;1.02;0.40;;;10.00;42.90;;;;;;4956473;29;20038;-74
2023/12/25 01:53:56;;;;;;;1.27;0.30;;;10.10;43.20;;;;;;4956561;29;20019;-75
2023/12/25 01:56:22;;;;;;;2.58;0.50;;;10.10;43.10;;;;;;4956333;29;20023;-75
2023/12/25 01:58:47;;;;;;;5.43;0.65;;;10.00;43.20;;;;;;4956519;29;20382;-74
2023/12/25 02:01:13;;;;;;;0.55;0.30;;;10.00;42.70;;;;;;4956005;29;20078;-76
2023/12/25 02:03:38;;;;;;;2.70;0.50;;;10.00;42.90;;;;;;4956347;29;20500;-74
2023/12/25 02:06:05;;;;;;;1.63;0.40;;;10.00;42.80;;;;;;4962602;28;20097;-74
2023/12/25 02:08:31;;;;;;;1.15;0.52;;;10.10;42.50;;;;;;4975760;28;20041;-74
2023/12/25 02:11:05;;;;;;;1.60;0.50;;;10.10;42.60;;;;;;4975266;28;20027;-74
2023/12/25 02:13:31;;;;;;;0.50;0.40;;;10.00;42.30;;;;;;4974693;28;20041;-75
2023/12/25 02:15:57;;;;;;;2.28;0.43;;;10.00;43.00;;;;;;4975396;28;20030;-75
2023/12/25 02:18:23;;;;;;;1.00;0.50;;;10.00;42.40;;;;;;4975443;28;20114;-75
2023/12/25 02:20:50;;;;;;;1.33;0.50;;;10.10;42.40;;;;;;4975312;28;20026;-76
2023/12/25 02:23:17;;;;;;;0.20;0.20;;;10.10;42.30;;;;;;4957786;28;20514;-75
2023/12/25 02:26:01;;;;;;;0.40;0.30;;;10.00;42.40;;;;;;4975423;28;20169;-76
2023/12/25 02:28:27;;;;;;;1.90;0.43;;;10.00;42.50;;;;;;4975249;28;20035;-75
2023/12/25 02:30:53;;;;;;;1.63;0.60;;;9.90;42.70;;;;;;4957774;28;20053;-77
2023/12/25 02:33:18;;;;;;;0.57;0.32;;;9.90;43.00;;;;;;4975093;28;20022;-75
2023/12/25 02:35:44;;;;;;;1.27;0.40;;;9.80;42.40;;;;;;4975077;28;20034;-75
2023/12/25 02:38:10;;;;;;;0.95;0.40;;;9.90;42.30;;;;;;4957739;28;20063;-75
2023/12/25 02:40:39;;;;;;;2.30;0.45;;;9.80;42.40;;;;;;4957452;28;20035;-76
2023/12/25 02:43:06;;;;;;;1.25;0.50;;;9.80;42.70;;;;;;4974859;28;20497;-75
2023/12/25 02:45:31;;;;;;;0.90;0.40;;;9.80;42.70;;;;;;4974924;28;20027;-75
2023/12/25 02:47:57;;;;;;;1.88;0.50;;;9.80;42.50;;;;;;4974781;28;20022;-74
2023/12/25 02:50:22;;;;;;;1.17;0.50;;;9.70;42.70;;;;;;4974623;28;20440;-75
2023/12/25 02:52:48;;;;;;;0.85;0.47;;;9.80;42.80;;;;;;4974630;28;20031;-74
2023/12/25 02:55:13;;;;;;;0.63;0.30;;;9.70;42.60;;;;;;4974706;28;20035;-75
2023/12/25 02:57:39;;;;;;;0.52;0.45;;;9.70;42.20;;;;;;4974639;28;20065;-75
2023/12/25 03:00:05;;;;;;;0.98;0.40;;;9.70;41.80;;;;;;4957357;28;20026;-74
2023/12/25 03:02:31;;;;;;;2.47;0.63;;;9.70;41.70;;;;;;4974659;28;20035;-75
2023/12/25 03:04:56;;;;;;;2.80;0.40;;;9.70;41.70;;;;;;4974803;28;20050;-75
2023/12/25 03:07:22;;;;;;;0.98;0.40;;;9.80;40.90;;;;;;4974730;28;20033;-74
2023/12/25 03:09:47;;;;;;;0.68;0.30;;;9.80;41.00;;;;;;4964430;28;20027;-75
2023/12/25 03:12:13;;;;;;;1.08;0.40;;;9.80;41.30;;;;;;4975566;28;20046;-75
2023/12/25 03:14:40;;;;;;;0.65;0.30;;;9.80;40.10;;;;;;4974582;28;20023;-75
2023/12/25 03:17:06;;;;;;;0.73;0.40;;;9.80;40.10;;;;;;4974585;28;20050;-75
2023/12/25 03:19:31;;;;;;;0.98;0.40;;;9.80;39.40;;;;;;4974427;28;20475;-76
2023/12/25 03:21:57;;;;;;;1.63;0.45;;;9.80;39.10;;;;;;4974513;28;20102;-76
2023/12/25 03:24:22;;;;;;;0.73;0.45;;;9.80;39.00;;;;;;4974392;28;20033;-76
2023/12/25 03:26:49;;;;;;;0.57;0.40;;;9.80;38.40;;;;;;4974302;28;20027;-76
2023/12/25 03:29:15;;;;;;;0.40;0.40;;;9.90;38.80;;;;;;4974298;28;20042;-76
2023/12/25 03:31:40;;;;;;;0.57;0.40;;;9.80;38.10;;;;;;4974236;28;20451;-76
2023/12/25 03:34:06;;;;;;;1.10;0.40;;;9.80;38.30;;;;;;4974221;28;20111;-75
2023/12/25 03:36:31;;;;;;;1.13;0.50;;;9.90;38.50;;;;;;4974229;28;20035;-74
2023/12/25 03:38:57;;;;;;;0.82;0.30;;;9.80;38.80;;;;;;4956756;28;20114;-74
2023/12/25 03:41:22;;;;;;;0.88;0.45;;;9.70;39.00;;;;;;4974201;28;20102;-74
2023/12/25 03:43:48;;;;;;;0.30;0.20;;;9.80;38.40;;;;;;4974161;28;20383;-74
2023/12/25 03:46:14;;;;;;;0.65;0.30;;;9.80;38.10;;;;;;4974094;28;20430;-74
2023/12/25 03:48:39;;;;;;;1.05;0.28;;;9.80;38.60;;;;;;4974055;28;20031;-75
2023/12/25 03:51:05;;;;;;;0.52;0.32;;;9.80;37.50;;;;;;4974059;28;20042;-74
2023/12/25 03:53:31;;;;;;;1.05;0.35;;;9.80;37.30;;;;;;4974103;28;20111;-74
2023/12/25 03:56:01;;;;;;;0.93;0.40;;;9.80;37.00;;;;;;4974125;28;20391;-77
2023/12/25 03:58:27;;;;;;;0.70;0.30;;;9.80;36.90;;;;;;4974093;28;20043;-78
2023/12/25 04:00:52;;;;;;;0.30;0.30;;;9.80;36.90;;;;;;4974089;28;20031;-76
2023/12/25 04:03:18;;;;;;;0.85;0.38;;;9.90;36.80;;;;;;4974104;28;20077;-78
2023/12/25 04:05:43;;;;;;;0.95;0.60;;;9.80;37.30;;;;;;4974005;28;20023;-78
2023/12/25 04:08:09;;;;;;;1.00;0.50;;;9.80;37.00;;;;;;4974071;28;20045;-77
2023/12/25 04:10:35;;;;;;;0.38;0.38;;;9.80;37.30;;;;;;4973801;28;20023;-75
2023/12/25 04:13:00;;;;;;;0.75;0.40;;;9.70;37.80;;;;;;4974039;28;20034;-77
2023/12/25 04:15:26;;;;;;;0.63;0.30;;;9.70;37.70;;;;;;4973990;28;20106;-76
2023/12/25 04:17:51;;;;;;;1.98;0.45;;;9.60;37.90;;;;;;4973743;28;20027;-78
2023/12/25 04:20:17;;;;;;;0.50;0.30;;;9.60;37.90;;;;;;4956143;28;20082;-76
2023/12/25 04:22:42;;;;;;;3.40;0.38;;;9.60;37.60;;;;;;4973729;28;20019;-75
2023/12/25 04:25:08;;;;;;;1.25;0.30;;;9.70;37.70;;;;;;4973801;28;20030;-75
2023/12/25 04:27:33;;;;;;;1.80;0.30;;;9.60;37.70;;;;;;4956371;28;20027;-75
2023/12/25 04:29:59;;;;;;;0.52;0.40;;;9.60;38.00;;;;;;4973671;28;20031;-76
2023/12/25 04:32:24;;;;;;;1.00;0.40;;;9.60;38.00;;;;;;4973625;28;20042;-75
2023/12/25 04:34:50;;;;;;;0.52;0.40;;;9.60;38.50;;;;;;4973660;28;20089;-75
2023/12/25 04:37:15;;;;;;;0.98;0.30;;;9.60;38.30;;;;;;4957601;28;20416;-75
2023/12/25 04:39:41;;;;;;;1.90;0.73;;;9.50;38.80;;;;;;4977113;28;20488;-75
2023/12/25 04:42:07;;;;;;;1.20;0.75;;;9.40;38.80;;;;;;4977222;28;20022;-75
2023/12/25 04:44:32;;;;;;;2.05;0.98;;;9.50;38.10;;;;;;4959699;28;20270;-75
2023/12/25 04:46:58;;;;;;;0.70;0.52;;;9.50;38.30;;;;;;4977073;28;20019;-76
2023/12/25 04:49:23;;;;;;;0.40;0.20;;;9.40;38.90;;;;;;4977038;28;20032;-75
2023/12/25 04:51:49;;;;;;;2.08;0.57;;;9.40;38.30;;;;;;4976838;28;20147;-76
2023/12/25 04:54:14;;;;;;;0.57;0.30;;;9.40;38.10;;;;;;4959755;28;20037;-75
2023/12/25 04:56:40;;;;;;;0.57;0.32;;;9.40;38.00;;;;;;4976733;28;20075;-75
2023/12/25 04:59:05;;;;;;;0.63;0.40;;;9.40;38.30;;;;;;4976784;28;20031;-76
2023/12/25 05:01:31;;;;;;;0.50;0.30;;;9.30;39.30;;;;;;4976815;28;20097;-76
2023/12/25 05:03:56;;;;;;;0.40;0.40;;;9.30;39.70;;;;;;4976775;28;20031;-77
2023/12/25 05:06:23;;;;;;;0.47;0.32;;;9.30;38.90;;;;;;4976677;28;20391;-77
2023/12/25 05:08:48;;;;;;;0.60;0.30;;;9.30;38.80;;;;;;4976713;28;20027;-77
2023/12/25 05:11:14;;;;;;;0.80;0.30;;;9.30;38.50;;;;;;4959251;28;20085;-78
2023/12/25 05:13:39;;;;;;;0.38;0.30;;;9.20;38.90;;;;;;4976947;28;20034;-77
2023/12/25 05:16:05;;;;;;;0.38;0.30;;;9.30;39.50;;;;;;4976527;28;20059;-77
2023/12/25 05:18:30;;;;;;;1.13;0.40;;;9.30;39.30;;;;;;4976665;28;20031;-76
2023/12/25 05:20:56;;;;;;;0.68;0.30;;;9.20;39.50;;;;;;4976549;28;20034;-77
2023/12/25 05:23:21;;;;;;;0.70;0.30;;;9.20;39.30;;;;;;4976436;28;20475;-76
2023/12/25 05:25:47;;;;;;;0.47;0.32;;;9.10;39.80;;;;;;4976459;28;20113;-76
2023/12/25 05:28:12;;;;;;;0.70;0.38;;;9.10;39.90;;;;;;4976313;28;20031;-77
2023/12/25 05:30:38;;;;;;;0.55;0.32;;;9.10;39.60;;;;;;4976247;28;20085;-76
2023/12/25 05:33:04;;;;;;;1.30;0.43;;;9.10;40.10;;;;;;4962739;28;20400;-75
2023/12/25 05:35:29;;;;;;;1.67;0.55;;;9.10;39.40;;;;;;4956760;29;20023;-75
2023/12/25 05:37:55;;;;;;;0.90;0.52;;;9.10;39.60;;;;;;4956592;29;20484;-76
2023/12/25 05:40:22;;;;;;;0.73;0.40;;;9.00;39.30;;;;;;4956798;29;20015;-75
2023/12/25 05:42:47;;;;;;;0.57;0.47;;;9.10;39.40;;;;;;4956705;29;20035;-76
2023/12/25 05:45:13;;;;;;;0.50;0.40;;;9.10;39.20;;;;;;4956753;29;20031;-75
2023/12/25 05:47:39;;;;;;;0.40;0.40;;;9.00;39.60;;;;;;4956369;28;20027;-75
2023/12/25 05:50:07;;;;;;;0.70;0.50;;;9.00;39.70;;;;;;4956760;28;20531;-76
2023/12/25 05:52:33;;;;;;;3.78;0.57;;;9.00;39.80;;;;;;4956501;28;20054;-77
2023/12/25 05:55:00;;;;;;;0.65;0.40;;;8.90;40.20;;;;;;4956595;29;20539;-76
2023/12/25 05:57:26;;;;;;;0.40;0.40;;;8.90;39.40;;;;;;4956491;29;20039;-75
2023/12/25 05:59:51;;;;;;;0.45;0.30;;;8.90;39.50;;;;;;4956489;29;20030;-76
2023/12/25 06:02:17;;;;;;;0.65;0.50;;;8.90;39.80;;;;;;4956512;28;20024;-77
2023/12/25 06:04:42;;;;;;;0.90;0.40;;;8.90;39.50;;;;;;4956449;29;20030;-78
2023/12/25 06:07:09;;;;;;;0.95;0.55;;;8.80;39.50;;;;;;4939022;29;20496;-77
2023/12/25 06:09:35;;;;;;;1.02;0.50;;;8.90;39.30;;;;;;4956390;29;20527;-78
2023/12/25 06:12:00;;;;;;;0.38;0.30;;;8.90;39.00;;;;;;4955941;29;20035;-77
2023/12/25 06:14:26;;;;;;;1.00;0.40;;;8.90;38.60;;;;;;4956074;29;20118;-78
2023/12/25 06:16:52;;;;;;;0.40;0.40;;;8.90;39.10;;;;;;4956178;29;20086;-78
2023/12/25 06:19:17;;;;;;;0.70;0.50;;;9.00;38.30;;;;;;4956172;28;20027;-78
2023/12/25 06:21:43;;;;;;;0.63;0.45;;;9.00;38.10;;;;;;4956036;28;20038;-77
2023/12/25 06:24:09;;;;;;;2.50;0.80;;;9.00;37.40;;;;;;4956007;29;20050;-77
2023/12/25 06:26:34;;;;;;;1.10;0.40;;;9.00;37.40;;;;;;4956064;29;20110;-76
2023/12/25 06:29:00;;;;;;;1.55;0.50;;;9.10;37.80;;;;;;4956116;29;20027;-78
2023/12/25 06:31:25;;;;;;;1.27;0.60;;;9.10;37.10;;;;;;4955972;28;20428;-78
2023/12/25 06:33:51;;;;;;;0.28;0.28;;;9.10;36.40;;;;;;4956052;29;20062;-78
2023/12/25 06:36:17;;;;;;;0.60;0.40;;;9.10;36.60;;;;;;4938596;29;20059;-79
2023/12/25 06:38:42;;;;;;;4.13;0.47;;;9.00;36.70;;;;;;4938644;29;20023;-80
2023/12/25 06:41:11;;;;;;;0.50;0.30;;;9.00;36.70;;;;;;4955878;29;20031;-77
2023/12/25 06:43:36;;;;;;;0.95;0.57;;;9.00;35.80;;;;;;4955565;28;20354;-78
2023/12/25 06:46:02;;;;;;;0.95;0.50;;;9.00;36.30;;;;;;4955699;28;20046;-80
2023/12/25 06:48:28;;;;;;;1.02;0.63;;;9.00;36.30;;;;;;4938225;29;20020;-78
2023/12/25 06:50:54;;;;;;;0.90;0.30;;;8.90;36.30;;;;;;4955963;29;20031;-77
2023/12/25 06:53:19;;;;;;;1.42;0.95;;;8.90;36.50;;;;;;4955632;28;20037;-78
2023/12/25 06:55:45;;;;;;;1.42;1.00;;;8.90;36.00;;;;;;4958040;29;20027;-77
2023/12/25 06:58:11;;;;;;;1.85;1.00;;;8.90;35.90;;;;;;4938186;29;20047;-77
2023/12/25 07:00:36;;;;;;;0.50;0.50;;;9.00;35.20;;;;;;4955178;28;20034;-77
2023/12/25 07:03:02;;;;;;;1.00;0.50;;;9.00;34.90;;;;;;4955524;29;20075;-79
2023/12/25 07:05:28;;;;;;;1.38;0.65;;;9.00;35.00;;;;;;4955300;28;20023;-78
2023/12/25 07:07:53;;;;;;;2.38;0.50;;;9.00;35.00;;;;;;4955361;29;20035;-78
2023/12/25 07:10:19;;;;;;;0.50;0.50;;;8.90;35.10;;;;;;4955791;28;20032;-79
2023/12/25 07:12:44;;;;;;;0.90;0.60;;;8.90;36.00;;;;;;4955880;29;20040;-76
2023/12/25 07:15:10;;;;;;;0.75;0.50;;;8.90;35.50;;;;;;4957134;28;20031;-78
2023/12/25 07:17:35;;;;;;;0.95;0.55;;;8.80;35.70;;;;;;4963828;29;20039;-80
2023/12/25 07:20:01;;;;;;;0.90;0.50;;;8.80;35.70;;;;;;4956700;29;20036;-79
2023/12/25 07:22:29;;;;;;;1.13;0.70;;;8.80;35.20;;;;;;4955609;29;20027;-79
2023/12/25 07:24:54;;;;;;;2.75;1.10;;;8.80;35.30;;;;;;4956096;29;20066;-79
2023/12/25 07:27:20;;;;;;;1.60;1.05;;;8.70;35.00;;;;;;4955404;29;20023;-78
2023/12/25 07:29:45;;;;;;;0.60;0.40;;;8.80;34.70;;;;;;4955477;28;20027;-80
2023/12/25 07:32:11;;;;;;;0.57;0.50;;;8.80;34.70;;;;;;4955427;29;20068;-78
2023/12/25 07:34:37;;;;;;;1.60;0.70;;;8.80;35.40;;;;;;4955287;29;20094;-79
2023/12/25 07:37:03;;;;;;;1.25;0.50;;;8.80;35.30;;;;;;4955183;28;20029;-78
2023/12/25 07:39:28;;;;;;;0.88;0.50;;;8.80;34.90;;;;;;4955057;29;20074;-80
2023/12/25 07:41:55;;;;;;;0.50;0.47;;;8.70;34.90;;;;;;4955167;29;20031;-78
2023/12/25 07:44:21;;;;;;;0.75;0.75;;;8.70;34.40;;;;;;4954955;29;20097;-78
2023/12/25 07:46:47;;;;;;;0.98;0.70;;;8.80;34.30;;;;;;4954982;29;20042;-78
2023/12/25 07:49:12;;;;;;;0.80;0.60;;;8.90;33.70;;;;;;4955893;29;20389;-77
2023/12/25 07:51:38;;;;;;;0.90;0.63;;;8.90;33.70;;;;;;4956464;29;20115;-76
2023/12/25 07:54:04;;;;;;;0.82;0.47;;;9.00;33.10;;;;;;4956229;29;20086;-76
2023/12/25 07:56:30;;;;;;;1.35;0.60;;;9.00;32.80;;;;;;4955983;29;20126;-78
2023/12/25 07:58:56;;;;;;;1.38;0.60;;;9.00;33.10;;;;;;4937542;29;20481;-74
2023/12/25 08:01:22;;;;;;;2.22;0.73;;;9.10;33.20;;;;;;4954517;28;20113;-75
2023/12/25 08:03:52;;;;;;;2.28;0.90;;;9.10;32.80;;;;;;4954076;29;20090;-76
2023/12/25 08:06:18;;;;;;;1.30;0.85;;;9.10;33.40;;;;;;4954694;28;20070;-76
2023/12/25 08:08:44;;;;;;;1.15;0.80;;;9.00;34.30;;;;;;4954500;28;20193;-75
2023/12/25 08:11:13;;;;;;;1.13;0.80;;;9.00;33.50;;;;;;4954557;28;20493;-76
2023/12/25 08:13:39;;;;;;;1.58;1.02;;;9.00;33.60;;;;;;4958279;29;20027;-74
2023/12/25 08:16:06;;;;;;;1.13;0.82;;;9.00;33.80;;;;;;4959566;29;20030;-80
2023/12/25 08:18:51;;;;;;;1.20;0.93;;;9.10;35.20;;;;;;4963973;28;20027;-74
2023/12/25 08:21:17;;;;;;;0.75;0.60;;;9.10;33.80;;;;;;4958758;29;20033;-81
2023/12/25 08:23:43;;;;;;;0.80;0.80;;;9.10;33.60;;;;;;4958417;28;20102;-74
2023/12/25 08:26:08;;;;;;;0.70;0.60;;;9.10;34.60;;;;;;4958301;28;20560;-74
2023/12/25 08:28:36;;;;;;;1.08;0.50;;;9.30;35.60;;;;;;4958254;29;20027;-74
2023/12/25 08:31:01;;;;;;;0.95;0.60;;;9.40;34.10;;;;;;4958029;28;20092;-74
2023/12/25 08:33:27;;;;;;;1.85;0.70;;;9.60;33.80;;;;;;4958052;29;20061;-74
2023/12/25 08:35:53;;;;;;;1.35;0.80;;;9.70;32.80;;;;;;4957742;29;20032;-75
2023/12/25 08:38:19;;;;;;;1.67;1.20;;;9.70;32.60;;;;;;4957866;29;20090;-74
2023/12/25 08:40:44;;;;;;;1.90;0.75;;;9.60;32.70;;;;;;4940484;29;20027;-76
2023/12/25 08:43:10;;;;;;;0.65;0.60;;;9.50;32.90;;;;;;4957925;29;20074;-75
2023/12/25 08:45:35;;;;;;;4.88;0.90;;;9.40;32.90;;;;;;4940523;29;20075;-75
2023/12/25 08:48:01;;;;;;;1.23;0.93;;;9.40;33.60;;;;;;4957794;28;20062;-75
2023/12/25 08:50:26;;;;;;;0.73;0.70;;;9.30;34.10;;;;;;4957806;29;20066;-75
2023/12/25 08:52:52;;;;;;;1.88;0.90;;;9.30;34.10;;;;;;4957710;29;20035;-75
2023/12/25 08:55:17;;;;;;;1.27;0.80;;;9.30;34.50;;;;;;4957502;29;20027;-74
2023/12/25 08:57:43;;;;;;;2.88;0.82;;;9.40;34.50;;;;;;4957733;29;20066;-74
2023/12/25 09:00:10;;;;;;;2.53;1.02;;;9.30;34.80;;;;;;4940367;29;20182;-74
2023/12/25 09:02:36;;;;;;;1.50;0.68;;;9.40;35.00;;;;;;4957627;28;20027;-74
2023/12/25 09:05:02;;;;;;;2.00;0.82;;;9.30;35.40;;;;;;4957520;28;20380;-74
2023/12/25 09:07:27;;;;;;;2.10;0.90;;;9.30;35.40;;;;;;4957471;28;20461;-75
2023/12/25 09:09:53;;;;;;;1.25;0.77;;;9.40;35.60;;;;;;4957444;29;20031;-74
2023/12/25 09:12:19;;;;;;;1.20;0.77;;;9.40;35.70;;;;;;4957408;29;20111;-74
2023/12/25 09:14:45;;;;;;;1.75;0.77;;;9.50;35.80;;;;;;4940065;29;20464;-75
2023/12/25 09:17:11;;;;;;;1.08;0.90;;;9.50;36.20;;;;;;4957209;29;20030;-74
2023/12/25 09:19:36;;;;;;;3.85;1.20;;;9.40;36.50;;;;;;4957197;29;20027;-74
2023/12/25 09:22:03;;;;;;;2.00;0.60;;;9.30;37.10;;;;;;4957285;29;20055;-75
2023/12/25 09:24:29;;;;;;;1.30;0.63;;;9.40;37.10;;;;;;4956742;28;20098;-75
2023/12/25 09:26:54;;;;;;;2.25;0.98;;;9.40;37.80;;;;;;4957398;29;20476;-78
2023/12/25 09:29:20;;;;;;;2.78;1.10;;;9.40;37.90;;;;;;4957131;28;20067;-76
2023/12/25 09:31:45;;;;;;;2.05;0.90;;;9.50;37.90;;;;;;4939584;29;20035;-74
2023/12/25 09:34:11;;;;;;;2.78;0.70;;;9.50;38.40;;;;;;4956994;29;20110;-74
2023/12/25 09:36:36;;;;;;;2.25;1.00;;;9.60;38.40;;;;;;4956817;29;20069;-74
2023/12/25 09:39:03;;;;;;;1.65;0.90;;;9.60;38.60;;;;;;4957864;28;20027;-74
2023/12/25 09:41:32;;;;;;;3.20;0.90;;;9.60;38.70;;;;;;4957847;29;20027;-74
2023/12/25 09:43:58;;;;;;;1.77;1.02;;;9.60;39.00;;;;;;4956834;29;20491;-74
2023/12/25 09:46:27;;;;;;;1.95;1.25;;;9.60;39.70;;;;;;4956605;29;20038;-75
2023/12/25 09:48:54;;;;;;;1.95;0.80;;;9.70;39.90;;;;;;4956549;29;20485;-75
2023/12/25 09:51:21;;;;;;;2.40;0.65;;;9.70;39.80;;;;;;4956612;28;20106;-73
2023/12/25 09:53:47;;;;;;;2.03;0.65;;;9.70;40.20;;;;;;4939205;29;20416;-74
2023/12/25 09:56:16;;;;;;;1.77;0.50;;;9.80;40.40;;;;;;4956650;29;20023;-75
2023/12/25 09:58:43;;;;;;;1.67;0.82;;;9.80;40.30;;;;;;4956309;29;20114;-74
2023/12/25 10:01:13;;;;;;;1.80;1.00;;;9.90;41.60;;;;;;4956533;29;20027;-74
2023/12/25 10:03:43;;;;;;;2.03;0.80;;;9.90;41.00;;;;;;4956343;28;20544;-74
2023/12/25 10:06:09;;;;;;;2.10;0.80;;;9.90;42.10;;;;;;4939076;29;20046;-74
2023/12/25 10:08:36;;;;;;;1.52;0.90;;;10.00;42.60;;;;;;4956245;29;20499;-75
2023/12/25 10:11:02;;;;;;;1.80;0.80;;;10.00;43.00;;;;;;4956136;28;20103;-76
2023/12/25 10:13:28;;;;;;;1.55;0.60;;;10.00;42.40;;;;;;4956200;29;20027;-75
2023/12/25 10:15:54;;;;;;;1.90;1.00;;;10.00;42.20;;;;;;4956097;28;20051;-73
2023/12/25 10:18:20;;;;;;;1.92;1.27;;;10.10;42.40;;;;;;4955711;29;20032;-73
2023/12/25 10:20:59;;;;;;;3.08;0.88;;;10.10;42.30;;;;;;4955414;28;20027;-73
2023/12/25 10:23:32;;;;;;;1.42;0.80;;;10.10;41.80;;;;;;4955624;29;20408;-74
2023/12/25 10:26:00;;;;;;;1.85;0.88;;;10.10;42.40;;;;;;4955690;29;20047;-74
2023/12/25 10:28:27;;;;;;;3.00;0.90;;;10.00;43.10;;;;;;4938378;29;20027;-74
2023/12/25 10:31:05;;;;;;;1.48;0.80;;;10.10;43.20;;;;;;4955937;29;20572;-75
2023/12/25 10:33:31;;;;;;;0.70;0.50;;;10.10;43.10;;;;;;4956300;28;20031;-75
2023/12/25 10:36:10;;;;;;;2.03;0.40;;;10.20;43.30;;;;;;4937921;28;20024;-75
2023/12/25 10:38:38;;;;;;;0.90;0.40;;;10.20;43.20;;;;;;4936964;29;20123;-75
2023/12/25 10:41:43;;;;;;;2.15;0.40;;;10.30;43.60;;;;;;4936825;29;20047;-74
2023/12/25 10:44:09;;;;;;;0.80;0.40;;;10.20;44.30;;;;;;4933062;29;20031;-75
2023/12/25 10:46:36;;;;;;;0.82;0.50;;;10.30;44.60;;;;;;4936480;29;20381;-74
2023/12/25 10:49:03;;;;;;;1.27;0.70;;;10.30;45.60;;;;;;4936525;29;20095;-74
2023/12/25 10:51:34;;;;;;;1.77;0.60;;;10.30;45.90;;;;;;4919353;29;20038;-74
2023/12/25 10:54:04;;;;;;;0.98;0.50;;;10.40;46.10;;;;;;4936906;29;20106;-74
2023/12/25 10:56:35;;;;;;;1.50;0.40;;;10.40;46.20;;;;;;4936301;29;20024;-74
2023/12/25 10:59:24;;;;;;;1.48;0.60;;;10.40;47.90;;;;;;4936559;29;20035;-74
2023/12/25 11:01:51;;;;;;;2.00;0.60;;;10.30;48.20;;;;;;4921678;29;20032;-73
2023/12/25 11:04:18;;;;;;;0.80;0.63;;;10.30;49.00;;;;;;4936801;29;20031;-75
2023/12/25 11:06:44;;;;;;;0.90;0.38;;;10.30;49.80;;;;;;4919501;29;20370;-74
2023/12/25 11:09:20;;;;;;;0.85;0.55;;;10.30;49.70;;;;;;4936278;29;20098;-74
2023/12/25 11:11:45;;;;;;;;;;;10.40;49.60;;;;;;4919489;29;20126;-74
2023/12/25 11:14:11;;;;;;;;;;;10.50;50.90;;;;;;4936529;29;19993;-73
2023/12/25 11:16:37;;;;;;;2.15;0.40;;;10.50;51.30;;;;;;4936007;29;19914;-74
2023/12/25 11:19:04;;;;;;;0.57;0.30;;;10.50;51.40;;;;;;4936058;29;20104;-73
2023/12/25 11:21:32;;;;;;;0.38;0.38;;;10.60;51.80;;;;;;4936012;29;20036;-74
2023/12/25 11:23:59;;;;;;;0.40;0.40;;;10.50;53.10;;;;;;4935969;29;20034;-73
2023/12/25 11:26:28;;;;;;;1.58;0.40;;;10.50;53.70;;;;;;4936112;29;20060;-73
2023/12/25 11:28:59;;;;;;;0.65;0.40;;;10.50;54.20;;;;;;4940988;29;20032;-75
2023/12/25 11:31:27;;;;;;;0.95;0.40;;;10.60;53.80;;;;;;4938368;29;20055;-75
2023/12/25 11:34:13;;;;;;;0.38;0.20;;;10.60;53.80;;;;;;4935976;29;20107;-75
2023/12/25 11:36:39;;;;;;;0.73;0.40;;;10.60;53.70;;;;;;4935651;29;20507;-74
2023/12/25 11:39:09;;;;;;;2.33;1.20;;;10.70;53.60;;;;;;4934547;29;20125;-74
2023/12/25 11:41:37;;;;;;;0.82;0.82;;;10.90;53.20;;;;;;4935742;29;20393;-74
2023/12/25 11:44:06;;;;;;;0.40;0.40;;;11.00;52.60;;;;;;4935710;29;20023;-74
2023/12/25 11:46:34;;;;;;;2.15;0.50;;;11.10;52.20;;;;;;4937005;29;20023;-74
2023/12/25 11:49:03;;;;;;;1.05;0.93;;;11.30;51.60;;;;;;4939840;29;20051;-73
2023/12/25 11:51:31;;;;;;;0.60;0.60;;;11.30;51.60;;;;;;4938284;29;20023;-74
2023/12/25 11:54:01;;;;;;;0.57;0.30;;;11.50;51.30;;;;;;4938600;29;20034;-74
2023/12/25 11:56:31;;;;;;;0.63;0.35;;;11.60;50.40;;;;;;4921294;29;20067;-73
2023/12/25 11:58:56;;;;;;;0.98;0.50;;;11.70;49.90;;;;;;4938735;29;20497;-74
2023/12/25 12:01:22;;;;;;;1.42;0.80;;;11.70;49.80;;;;;;4939231;29;20042;-73
2023/12/25 12:03:50;;;;;;;2.60;0.60;;;11.80;49.50;;;;;;4939307;29;20031;-73
2023/12/25 12:06:20;;;;;;;1.95;0.77;;;11.80;49.40;;;;;;4921789;29;20119;-74
2023/12/25 12:08:47;;;;;;;0.52;0.47;;;12.00;49.80;;;;;;4921842;29;20024;-74
2023/12/25 12:11:14;;;;;;;0.63;0.40;;;12.00;49.80;;;;;;4939350;29;20059;-74
2023/12/25 12:13:40;;;;;;;1.13;0.73;;;12.10;50.70;;;;;;4939352;29;20114;-74
2023/12/25 12:16:06;;;;;;;0.70;0.55;;;12.20;50.00;;;;;;4939068;29;20369;-74
2023/12/25 12:18:33;;;;;;;1.00;0.30;;;12.30;50.20;;;;;;4939116;29;20024;-74
2023/12/25 12:20:58;;;;;;;0.47;0.47;;;12.40;49.70;;;;;;4939190;29;20074;-74
2023/12/25 12:23:27;;;;;;;1.35;1.08;;;12.60;49.20;;;;;;4940945;29;20525;-73
2023/12/25 12:25:52;;;;;;;2.60;1.98;;;12.80;49.00;;;;;;4938925;29;20381;-74
2023/12/25 12:28:18;;;;;;;1.45;0.40;;;13.20;48.60;;;;;;4939146;29;20032;-73
2023/12/25 12:30:43;;;;;;;1.10;0.57;;;13.30;48.10;;;;;;4938897;29;20118;-73
2023/12/25 12:33:12;;;;;;;1.80;0.55;;;13.30;48.40;;;;;;4921617;29;20051;-75
2023/12/25 12:35:41;;;;;;;1.05;0.68;;;13.30;49.20;;;;;;4938768;29;20026;-74
2023/12/25 12:38:07;;;;;;;1.67;0.65;;;13.10;49.70;;;;;;4947322;29;20037;-75
2023/12/25 12:40:32;;;;;;;0.63;0.40;;;13.00;50.50;;;;;;4957529;29;20011;-75
2023/12/25 12:42:58;;;;;;;0.88;0.40;;;12.80;51.80;;;;;;4957406;29;20469;-74
2023/12/25 12:45:23;;;;;;;0.93;0.50;;;12.60;52.70;;;;;;4957364;29;20028;-75
2023/12/25 12:47:52;;;;;;;1.15;0.50;;;12.50;53.50;;;;;;4957506;29;20024;-75
2023/12/25 12:50:22;;;;;;;0.43;0.22;;;12.30;54.50;;;;;;4940198;29;20034;-74